Time;durP1;ratioP1;P1;durP2;ratioP2;P2;SDS_P1;SDS_P2;PMS_P1;PMS_P2;Temp;Humidity;BMP_temperature;BMP_pressure;BME280_temperature;BME280_humidity;BME280_pressure;Samples;Min_cycle;Max_cycle;Signal;HPM_P1;HPM_P2
2022/01/02 00:02:21;;;;;;;2.33;1.83;;;14.80;66.40;;;;;;5020090;28;20510;-47
2022/01/02 00:04:49;;;;;;;2.15;1.60;;;14.80;66.70;;;;;;5017333;28;20048;-47
2022/01/02 00:07:19;;;;;;;2.17;1.48;;;14.80;66.70;;;;;;5028090;28;20053;-49
2022/01/02 00:09:49;;;;;;;1.70;1.60;;;14.80;66.60;;;;;;5007670;28;20046;-48
2022/01/02 00:12:18;;;;;;;1.52;1.25;;;14.90;66.70;;;;;;5019985;28;20053;-46
2022/01/02 00:14:47;;;;;;;3.00;1.60;;;14.80;66.20;;;;;;5012552;28;20049;-49
2022/01/02 00:17:18;;;;;;;1.60;1.30;;;14.80;66.20;;;;;;5008642;28;20088;-47
2022/01/02 00:19:52;;;;;;;2.55;1.40;;;14.80;66.10;;;;;;5032673;23;20091;-79
2022/01/02 00:22:24;;;;;;;1.48;1.23;;;14.80;66.20;;;;;;5009562;28;20393;-78
2022/01/02 00:24:52;;;;;;;;;;;14.80;66.10;;;;;;5046409;28;20128;-78
2022/01/02 00:27:19;;;;;;;1.40;1.30;;;14.90;66.30;;;;;;5015883;28;19928;-79
2022/01/02 00:29:47;;;;;;;2.45;1.50;;;14.90;66.10;;;;;;5010585;28;20405;-78
2022/01/02 00:32:15;;;;;;;2.95;1.60;;;14.90;66.00;;;;;;5025083;28;20072;-78
2022/01/02 00:34:42;;;;;;;1.92;1.20;;;14.90;65.90;;;;;;5013156;28;20147;-79
2022/01/02 00:37:09;;;;;;;3.10;1.40;;;14.90;65.90;;;;;;5029169;28;20052;-79
2022/01/02 00:39:37;;;;;;;2.17;1.50;;;15.00;65.90;;;;;;5018231;28;20053;-79
2022/01/02 00:42:14;;;;;;;2.92;1.25;;;15.00;65.80;;;;;;5025260;28;20042;-79
2022/01/02 00:45:04;;;;;;;3.22;1.30;;;15.00;65.30;;;;;;5009994;28;20045;-79
2022/01/02 00:47:34;;;;;;;1.38;1.20;;;15.10;65.50;;;;;;5013096;28;20045;-78
2022/01/02 00:50:20;;;;;;;3.90;1.60;;;15.10;65.30;;;;;;4987179;28;20046;-78
2022/01/02 00:52:49;;;;;;;1.73;1.27;;;15.10;64.90;;;;;;5005145;28;20060;-79
2022/01/02 00:55:22;;;;;;;3.13;1.90;;;15.20;65.30;;;;;;5010301;28;20053;-78
2022/01/02 00:58:08;;;;;;;2.65;1.50;;;15.20;65.00;;;;;;5005781;28;20161;-79
2022/01/02 01:00:35;;;;;;;2.10;1.40;;;15.20;64.80;;;;;;5014469;28;20129;-79
2022/01/02 01:03:09;;;;;;;1.88;1.70;;;15.20;65.20;;;;;;4993199;28;20046;-79
2022/01/02 01:05:38;;;;;;;3.47;1.50;;;15.30;64.90;;;;;;5001629;28;20052;-78
2022/01/02 01:08:07;;;;;;;5.90;2.47;;;15.30;65.00;;;;;;5010499;28;20448;-78
2022/01/02 01:10:38;;;;;;;4.30;2.47;;;15.30;64.80;;;;;;5017799;28;20416;-79
2022/01/02 01:13:08;;;;;;;4.28;1.63;;;15.30;65.60;;;;;;4996778;28;20049;-79
2022/01/02 01:15:36;;;;;;;3.10;1.58;;;15.40;64.90;;;;;;5018747;28;20057;-79
2022/01/02 01:18:05;;;;;;;2.72;1.70;;;15.40;64.90;;;;;;4987183;28;20053;-79
2022/01/02 01:20:37;;;;;;;5.22;1.85;;;15.40;64.90;;;;;;5027199;28;20520;-79
2022/01/02 01:23:05;;;;;;;3.53;1.80;;;15.50;64.90;;;;;;5028191;28;20045;-79
2022/01/02 01:25:31;;;;;;;2.83;1.77;;;15.50;65.00;;;;;;4993065;28;20041;-79
2022/01/02 01:28:00;;;;;;;4.43;2.42;;;15.50;64.90;;;;;;5011642;28;20656;-78
2022/01/02 01:30:29;;;;;;;2.90;2.30;;;15.60;65.00;;;;;;5019263;28;20129;-78
2022/01/02 01:32:56;;;;;;;2.60;1.58;;;15.60;65.00;;;;;;5014076;28;20045;-79
2022/01/02 01:35:23;;;;;;;4.90;2.35;;;15.60;65.60;;;;;;4991779;28;20049;-78
2022/01/02 01:37:50;;;;;;;3.33;2.17;;;15.60;65.00;;;;;;5020632;28;20034;-79
2022/01/02 01:40:18;;;;;;;4.15;1.92;;;15.60;64.90;;;;;;5011423;28;20099;-79
2022/01/02 01:43:02;;;;;;;3.15;2.22;;;15.60;64.80;;;;;;5004705;28;20043;-80
2022/01/02 01:45:34;;;;;;;3.38;2.08;;;15.60;65.00;;;;;;5028877;28;20045;-79
2022/01/02 01:48:06;;;;;;;3.60;2.08;;;15.60;65.10;;;;;;4999109;28;20053;-80
2022/01/02 01:50:41;;;;;;;3.00;1.70;;;15.60;65.00;;;;;;5009941;28;20055;-79
2022/01/02 01:53:13;;;;;;;1.45;1.27;;;15.60;64.90;;;;;;5014406;28;20045;-79
2022/01/02 01:55:42;;;;;;;3.78;2.20;;;15.60;65.00;;;;;;5004510;28;20073;-79
2022/01/02 01:58:10;;;;;;;3.47;2.47;;;15.60;65.00;;;;;;5019157;28;20090;-79
2022/01/02 02:00:40;;;;;;;1.98;1.77;;;15.60;65.00;;;;;;5017804;28;20057;-78
2022/01/02 02:03:14;;;;;;;2.85;2.20;;;15.60;65.20;;;;;;5009341;28;20041;-78
2022/01/02 02:05:42;;;;;;;3.35;1.88;;;15.60;65.20;;;;;;5013909;28;20042;-78
2022/01/02 02:08:10;;;;;;;3.22;1.95;;;15.60;65.20;;;;;;5017299;28;20638;-80
2022/01/02 02:10:42;;;;;;;3.35;1.75;;;15.60;65.30;;;;;;5009293;28;20049;-78
2022/01/02 02:13:13;;;;;;;3.55;1.65;;;15.60;65.30;;;;;;5006128;28;20081;-79
2022/01/02 02:15:45;;;;;;;2.05;1.63;;;15.60;65.50;;;;;;5014940;28;20041;-78
2022/01/02 02:18:13;;;;;;;3.40;1.90;;;15.50;65.40;;;;;;5005042;28;20132;-79
2022/01/02 02:20:40;;;;;;;4.55;1.80;;;15.60;65.60;;;;;;5029399;28;20505;-78
2022/01/02 02:23:16;;;;;;;6.47;1.88;;;15.60;65.60;;;;;;5003959;28;20037;-78
2022/01/02 02:25:46;;;;;;;3.15;1.58;;;15.60;65.80;;;;;;5000516;28;20519;-79
2022/01/02 02:28:15;;;;;;;2.88;2.08;;;15.60;65.90;;;;;;5011510;28;20064;-78
2022/01/02 02:30:47;;;;;;;4.32;2.05;;;15.60;65.90;;;;;;5041051;23;20065;-48
2022/01/02 02:33:15;;;;;;;4.05;1.90;;;15.50;65.80;;;;;;5011043;28;20030;-53
2022/01/02 02:35:46;;;;;;;4.60;1.73;;;15.50;66.00;;;;;;4982010;28;20128;-49
2022/01/02 02:38:17;;;;;;;4.65;2.50;;;15.50;66.20;;;;;;4993389;28;20070;-52
2022/01/02 02:40:46;;;;;;;3.50;1.67;;;15.50;66.40;;;;;;5006412;28;20064;-51
2022/01/02 02:51:40;;;;;;;3.53;1.65;;;15.50;66.90;;;;;;5011389;28;20038;-48
2022/01/02 02:54:08;;;;;;;2.75;1.60;;;15.50;67.10;;;;;;5000211;28;20168;-53
2022/01/02 02:59:28;;;;;;;5.80;1.98;;;15.40;67.30;;;;;;5003145;28;20042;-51
2022/01/02 03:01:56;;;;;;;5.00;2.20;;;15.40;67.40;;;;;;5013711;28;20136;-52
2022/01/02 03:04:26;;;;;;;2.70;1.90;;;15.40;67.40;;;;;;5003254;28;20049;-48
2022/01/02 03:06:54;;;;;;;2.40;1.83;;;15.40;67.50;;;;;;5000622;28;20107;-50
2022/01/02 03:09:47;;;;;;;4.10;1.85;;;15.40;67.60;;;;;;4987306;28;20054;-52
2022/01/02 03:12:14;;;;;;;3.33;2.00;;;15.40;67.90;;;;;;5010271;28;20042;-49
2022/01/02 03:14:45;;;;;;;4.97;2.37;;;15.30;67.60;;;;;;5005778;28;20038;-51
2022/01/02 03:17:15;;;;;;;3.33;2.00;;;15.30;67.60;;;;;;4995111;28;20104;-51
2022/01/02 03:19:41;;;;;;;6.32;2.90;;;15.30;67.70;;;;;;4989052;28;20069;-53
2022/01/02 03:22:12;;;;;;;5.78;2.10;;;15.30;67.70;;;;;;5003774;28;20041;-52
2022/01/02 03:24:39;;;;;;;6.55;2.05;;;15.30;67.80;;;;;;5014942;28;20049;-49
2022/01/02 03:27:06;;;;;;;3.78;2.47;;;15.30;67.70;;;;;;5008209;28;20049;-49
2022/01/02 03:29:32;;;;;;;5.15;2.38;;;15.30;67.90;;;;;;5010188;28;20050;-52
2022/01/02 03:32:04;;;;;;;4.30;1.92;;;15.30;68.00;;;;;;5023685;28;20605;-50
2022/01/02 03:34:35;;;;;;;3.88;1.85;;;15.30;68.10;;;;;;5013039;28;20046;-52
2022/01/02 03:37:02;;;;;;;2.45;1.73;;;15.30;68.20;;;;;;5028049;28;20049;-53
2022/01/02 03:39:30;;;;;;;3.67;1.98;;;15.30;68.30;;;;;;4996947;28;20516;-49
2022/01/02 03:41:58;;;;;;;3.88;2.03;;;15.30;68.30;;;;;;5022655;28;20041;-50
2022/01/02 03:44:25;;;;;;;5.05;2.63;;;15.30;68.30;;;;;;5013846;28;20057;-49
2022/01/02 03:46:52;;;;;;;5.40;2.20;;;15.30;69.00;;;;;;5013573;28;20128;-51
2022/01/02 03:49:19;;;;;;;6.93;2.08;;;15.30;68.40;;;;;;4999797;28;20049;-52
2022/01/02 03:51:46;;;;;;;4.22;1.95;;;15.30;68.40;;;;;;5022166;28;20064;-51
2022/01/02 03:54:13;;;;;;;5.50;2.45;;;15.30;68.40;;;;;;5029879;28;20046;-48
2022/01/02 03:56:44;;;;;;;5.10;2.20;;;15.30;68.50;;;;;;5022904;28;20041;-51
2022/01/02 03:59:12;;;;;;;4.75;2.08;;;15.30;69.20;;;;;;5007629;28;20049;-49
2022/01/02 04:01:39;;;;;;;4.65;2.25;;;15.30;68.50;;;;;;5005280;28;20045;-52
2022/01/02 04:04:08;;;;;;;3.58;1.80;;;15.40;68.60;;;;;;5029275;28;20049;-51
2022/01/02 04:06:35;;;;;;;3.17;1.75;;;15.40;68.90;;;;;;5014267;28;20100;-49
2022/01/02 04:09:03;;;;;;;3.22;1.73;;;15.40;68.80;;;;;;4987248;28;20057;-50
2022/01/02 04:11:30;;;;;;;5.55;2.00;;;15.40;68.80;;;;;;5001549;28;20108;-49
2022/01/02 04:13:57;;;;;;;5.25;1.83;;;15.40;68.90;;;;;;4993082;28;20046;-52
2022/01/02 04:16:27;;;;;;;3.33;2.33;;;15.40;69.00;;;;;;4991664;28;20042;-49
2022/01/02 04:18:54;;;;;;;4.80;2.33;;;15.40;69.20;;;;;;5020352;28;20117;-49
2022/01/02 04:21:20;;;;;;;7.50;2.10;;;15.40;69.20;;;;;;5010779;28;20065;-51
2022/01/02 04:23:48;;;;;;;4.90;1.98;;;15.40;69.20;;;;;;5018814;28;20038;-49
2022/01/02 04:26:15;;;;;;;9.35;3.30;;;15.40;69.30;;;;;;4997522;28;20037;-49
2022/01/02 04:28:42;;;;;;;6.20;2.13;;;15.40;69.40;;;;;;5016003;28;20037;-50
2022/01/02 04:31:10;;;;;;;5.75;2.20;;;15.40;69.40;;;;;;4995483;28;20074;-49
2022/01/02 04:33:39;;;;;;;4.05;2.20;;;15.40;69.50;;;;;;4991545;28;20408;-53
2022/01/02 04:36:06;;;;;;;4.75;1.75;;;15.40;69.60;;;;;;5019951;28;20045;-49
2022/01/02 04:38:36;;;;;;;5.38;2.60;;;15.40;69.60;;;;;;4989367;28;20068;-49
2022/01/02 04:41:03;;;;;;;4.57;1.83;;;15.40;69.80;;;;;;5023091;28;20033;-51
2022/01/02 04:43:30;;;;;;;5.00;1.85;;;15.40;69.90;;;;;;5024808;28;20038;-50
2022/01/02 04:45:58;;;;;;;4.68;1.95;;;15.40;70.00;;;;;;5006427;28;20397;-50
2022/01/02 04:48:25;;;;;;;5.45;1.90;;;15.40;70.00;;;;;;5021759;28;20496;-53
2022/01/02 04:50:52;;;;;;;4.82;1.80;;;15.40;70.00;;;;;;5012392;28;20053;-52
2022/01/02 04:53:22;;;;;;;5.88;2.55;;;15.40;70.10;;;;;;5016340;28;20685;-52
2022/01/02 04:55:50;;;;;;;4.65;2.58;;;15.40;70.10;;;;;;5005254;28;20176;-48
2022/01/02 04:58:17;;;;;;;5.68;2.30;;;15.40;70.20;;;;;;5009206;28;20412;-53
2022/01/02 05:00:46;;;;;;;5.90;2.00;;;15.40;70.30;;;;;;4995533;28;20068;-53
2022/01/02 05:03:13;;;;;;;4.65;2.10;;;15.40;70.30;;;;;;5003650;28;20494;-53
2022/01/02 05:05:40;;;;;;;6.38;2.72;;;15.30;70.20;;;;;;4999942;28;20044;-49
2022/01/02 05:08:07;;;;;;;6.38;2.30;;;15.40;70.30;;;;;;4993504;28;20516;-50
2022/01/02 05:10:35;;;;;;;3.03;1.90;;;15.40;70.40;;;;;;4992500;28;20042;-52
2022/01/02 05:13:02;;;;;;;5.68;2.47;;;15.30;70.40;;;;;;4989620;28;20054;-52
2022/01/02 05:15:29;;;;;;;5.40;2.08;;;15.30;70.40;;;;;;5001512;28;20071;-51
2022/01/02 05:17:56;;;;;;;5.00;1.63;;;15.30;70.30;;;;;;5030780;28;20065;-52
2022/01/02 05:20:23;;;;;;;7.32;2.05;;;15.30;70.40;;;;;;5013039;28;20497;-50
2022/01/02 05:22:50;;;;;;;5.25;2.13;;;15.30;70.50;;;;;;5014909;28;20549;-51
2022/01/02 05:25:16;;;;;;;6.63;2.17;;;15.30;70.50;;;;;;5019946;28;20041;-52
2022/01/02 05:27:44;;;;;;;5.65;2.20;;;15.30;70.50;;;;;;4992896;28;20523;-49
2022/01/02 05:30:10;;;;;;;6.05;2.47;;;15.30;70.60;;;;;;4986349;28;20177;-49
2022/01/02 05:32:37;;;;;;;5.93;2.10;;;15.30;70.60;;;;;;5010017;28;20041;-51
2022/01/02 05:35:05;;;;;;;6.28;2.65;;;15.30;70.70;;;;;;5007062;28;20079;-50
2022/01/02 05:37:32;;;;;;;4.68;2.65;;;15.30;70.70;;;;;;5005501;28;20141;-48
2022/01/02 05:39:59;;;;;;;5.15;2.60;;;15.30;70.80;;;;;;5004544;28;20046;-50
2022/01/02 05:42:28;;;;;;;5.88;2.42;;;15.30;70.70;;;;;;4992074;28;20422;-52
2022/01/02 05:44:58;;;;;;;6.80;1.70;;;15.30;70.70;;;;;;5019038;28;20033;-50
2022/01/02 05:47:28;;;;;;;4.50;2.22;;;15.30;70.60;;;;;;5018409;28;20038;-49
2022/01/02 05:49:54;;;;;;;6.00;2.22;;;15.30;70.60;;;;;;5009113;28;20038;-49
2022/01/02 05:52:21;;;;;;;3.45;1.98;;;15.30;70.60;;;;;;4997476;28;20513;-52
2022/01/02 05:54:48;;;;;;;4.85;1.85;;;15.30;70.50;;;;;;5010378;28;20133;-51
2022/01/02 05:57:15;;;;;;;4.57;1.90;;;15.30;70.50;;;;;;5009235;28;20042;-50
2022/01/02 05:59:41;;;;;;;5.47;2.10;;;15.30;70.60;;;;;;4992015;28;20037;-49
2022/01/02 06:02:08;;;;;;;3.88;2.00;;;15.30;70.60;;;;;;5013590;28;20056;-51
2022/01/02 06:04:35;;;;;;;4.00;2.20;;;15.20;70.40;;;;;;5009871;28;20039;-51
2022/01/02 06:07:04;;;;;;;5.88;1.95;;;15.20;70.40;;;;;;4989135;28;20054;-51
2022/01/02 06:09:31;;;;;;;5.68;2.55;;;15.20;70.40;;;;;;4994370;28;20128;-48
2022/01/02 06:11:59;;;;;;;5.35;1.80;;;15.20;70.30;;;;;;5013162;28;20050;-52
2022/01/02 06:14:26;;;;;;;3.53;1.83;;;15.30;70.40;;;;;;4991740;28;20046;-52
2022/01/02 06:16:53;;;;;;;6.05;2.22;;;15.20;70.20;;;;;;4991445;28;20042;-48
2022/01/02 06:19:20;;;;;;;7.50;1.98;;;15.20;70.10;;;;;;4993237;28;20123;-52
2022/01/02 06:21:47;;;;;;;3.42;1.50;;;15.20;70.10;;;;;;5016095;28;20037;-49
2022/01/02 06:24:15;;;;;;;4.85;2.15;;;15.20;70.10;;;;;;5003391;28;20103;-51
2022/01/02 06:26:43;;;;;;;4.75;1.70;;;15.20;70.00;;;;;;4998822;28;20037;-50
2022/01/02 06:29:10;;;;;;;4.80;2.20;;;15.20;70.00;;;;;;5018475;28;20559;-52
2022/01/02 06:31:40;;;;;;;2.55;1.80;;;15.20;69.80;;;;;;5021030;28;20067;-49
2022/01/02 06:34:07;;;;;;;3.60;2.28;;;15.20;69.80;;;;;;5002381;28;20469;-52
2022/01/02 06:36:34;;;;;;;6.13;2.17;;;15.30;69.90;;;;;;4993660;28;20046;-52
2022/01/02 06:39:01;;;;;;;7.38;2.13;;;15.30;70.00;;;;;;5004713;28;20053;-50
2022/01/02 06:41:28;;;;;;;3.22;2.47;;;15.30;70.00;;;;;;5024668;28;20037;-51
2022/01/02 06:43:56;;;;;;;7.10;2.42;;;15.30;70.00;;;;;;5023348;28;20042;-51
2022/01/02 06:46:23;;;;;;;4.35;1.95;;;15.30;70.00;;;;;;5011016;28;20073;-51
2022/01/02 06:48:52;;;;;;;3.67;2.17;;;15.30;70.00;;;;;;5022496;28;20107;-50
2022/01/02 06:51:38;;;;;;;9.80;2.15;;;15.30;70.00;;;;;;5001590;28;20054;-52
2022/01/02 06:54:08;;;;;;;6.35;2.20;;;15.30;70.00;;;;;;4988197;28;20514;-53
2022/01/02 06:56:34;;;;;;;5.95;2.22;;;15.20;70.00;;;;;;5008380;28;20166;-52
2022/01/02 06:59:02;;;;;;;3.88;1.92;;;15.20;70.00;;;;;;4998820;28;20420;-49
2022/01/02 07:01:28;;;;;;;3.97;2.10;;;15.20;69.90;;;;;;4994613;28;20038;-49
2022/01/02 07:03:56;;;;;;;4.18;1.90;;;15.20;69.90;;;;;;4994215;28;20034;-48
2022/01/02 07:06:22;;;;;;;3.00;1.90;;;15.20;69.80;;;;;;4994495;28;20101;-50
2022/01/02 07:08:50;;;;;;;3.58;1.75;;;15.20;69.80;;;;;;5007441;28;20049;-52
2022/01/02 07:11:18;;;;;;;4.53;2.45;;;15.20;69.90;;;;;;5016181;28;20178;-49
2022/01/02 07:13:44;;;;;;;5.90;2.25;;;15.20;69.80;;;;;;5010805;28;20453;-49
2022/01/02 07:16:11;;;;;;;6.90;2.17;;;15.20;69.80;;;;;;5022872;28;20049;-49
2022/01/02 07:18:38;;;;;;;5.15;2.70;;;15.20;69.80;;;;;;5025311;28;20041;-52
2022/01/02 07:21:04;;;;;;;4.28;1.92;;;15.20;69.80;;;;;;5016233;28;20425;-49
2022/01/02 07:23:31;;;;;;;4.05;1.92;;;15.20;69.80;;;;;;5013003;28;20091;-49
2022/01/02 07:25:58;;;;;;;5.10;2.00;;;15.20;69.60;;;;;;5016761;28;20092;-49
2022/01/02 07:28:25;;;;;;;3.72;2.00;;;15.30;69.60;;;;;;5011203;28;20497;-52
2022/01/02 07:30:53;;;;;;;4.47;1.95;;;15.30;69.50;;;;;;5010034;28;20042;-49
2022/01/02 07:33:20;;;;;;;3.45;1.85;;;15.30;69.40;;;;;;5005706;28;20502;-48
2022/01/02 07:35:47;;;;;;;5.13;2.42;;;15.30;69.30;;;;;;4986611;28;20058;-54
2022/01/02 07:38:30;;;;;;;;;;;15.30;69.00;;;;;;5004621;28;20060;-55
2022/01/02 07:40:56;;;;;;;2.78;1.73;;;15.40;69.10;;;;;;4999812;28;19976;-55
2022/01/02 07:43:23;;;;;;;3.80;2.58;;;15.40;68.70;;;;;;5008142;28;20052;-55
2022/01/02 07:45:50;;;;;;;3.55;2.00;;;15.30;68.50;;;;;;4995124;28;20041;-56
2022/01/02 07:48:17;;;;;;;4.43;2.35;;;15.30;68.50;;;;;;5011606;28;20405;-56
2022/01/02 07:50:43;;;;;;;4.80;2.25;;;15.40;68.50;;;;;;5004254;28;20505;-55
2022/01/02 07:53:10;;;;;;;3.17;2.20;;;15.30;68.40;;;;;;5009107;28;20050;-55
2022/01/02 07:55:37;;;;;;;4.38;2.45;;;15.30;68.30;;;;;;4998638;28;20061;-55
2022/01/02 07:58:04;;;;;;;3.65;2.22;;;15.30;68.20;;;;;;5008134;28;20092;-56
2022/01/02 08:00:30;;;;;;;2.75;1.75;;;15.30;68.20;;;;;;4997606;28;20180;-53
2022/01/02 08:02:57;;;;;;;4.47;1.67;;;15.30;68.10;;;;;;5019527;28;20042;-54
2022/01/02 08:05:24;;;;;;;5.15;2.40;;;15.30;68.00;;;;;;5006517;28;20332;-56
2022/01/02 08:07:51;;;;;;;4.30;2.25;;;15.30;67.90;;;;;;5004173;28;20096;-56
2022/01/02 08:10:18;;;;;;;6.35;2.55;;;15.30;67.70;;;;;;4993785;28;20045;-56
2022/01/02 08:12:44;;;;;;;3.45;1.80;;;15.30;67.60;;;;;;5008507;28;20257;-56
2022/01/02 08:15:11;;;;;;;3.70;1.77;;;15.30;67.60;;;;;;4993021;28;20053;-55
2022/01/02 08:17:38;;;;;;;3.08;1.48;;;15.30;67.40;;;;;;5001247;28;20042;-58
2022/01/02 08:20:05;;;;;;;4.10;2.47;;;15.30;67.20;;;;;;5001229;28;20398;-55
2022/01/02 08:22:32;;;;;;;3.85;1.83;;;15.30;66.90;;;;;;5004730;28;20046;-55
2022/01/02 08:24:59;;;;;;;2.15;1.95;;;15.30;66.80;;;;;;5008532;28;20115;-56
2022/01/02 08:27:26;;;;;;;2.55;1.75;;;15.40;66.60;;;;;;5002759;28;20042;-56
2022/01/02 08:29:52;;;;;;;3.22;1.40;;;15.40;66.30;;;;;;5006824;28;20069;-55
2022/01/02 08:32:19;;;;;;;2.65;1.25;;;15.40;65.90;;;;;;5001323;28;20045;-56
2022/01/02 08:34:51;;;;;;;;;;;15.40;65.80;;;;;;5009544;28;20053;-57
2022/01/02 08:37:18;;;;;;;2.20;1.10;;;15.50;65.80;;;;;;4996250;28;20266;-56
2022/01/02 08:39:45;;;;;;;2.03;0.90;;;15.50;65.60;;;;;;5010946;28;20053;-55
2022/01/02 08:42:13;;;;;;;2.00;1.23;;;15.60;65.00;;;;;;4999127;28;20045;-56
2022/01/02 08:44:43;;;;;;;1.52;1.20;;;15.60;64.60;;;;;;4998316;28;20437;-57
2022/01/02 08:47:11;;;;;;;1.75;0.90;;;15.70;64.50;;;;;;4997074;28;20042;-55
2022/01/02 08:49:37;;;;;;;2.92;1.38;;;15.70;64.30;;;;;;5011903;28;20125;-55
2022/01/02 08:52:04;;;;;;;2.13;1.10;;;15.70;63.90;;;;;;5010042;28;20101;-55
2022/01/02 08:54:32;;;;;;;2.58;1.27;;;15.80;63.60;;;;;;5007687;28;20099;-56
2022/01/02 08:56:58;;;;;;;3.15;1.00;;;15.80;63.40;;;;;;4996649;28;20064;-52
2022/01/02 08:59:27;;;;;;;2.30;0.95;;;15.80;63.20;;;;;;5013429;28;20041;-56
2022/01/02 09:01:56;;;;;;;3.95;1.40;;;15.90;62.90;;;;;;5008232;28;20041;-55
2022/01/02 09:04:23;;;;;;;1.88;1.17;;;15.90;62.90;;;;;;5008007;28;20042;-55
2022/01/02 09:06:50;;;;;;;2.75;2.13;;;15.90;62.70;;;;;;5001633;28;20520;-56
2022/01/02 09:09:17;;;;;;;2.53;1.13;;;15.90;62.50;;;;;;5010850;28;20049;-55
2022/01/02 09:11:44;;;;;;;1.80;1.23;;;16.00;62.50;;;;;;4998670;28;20081;-56
2022/01/02 09:14:11;;;;;;;1.60;1.50;;;16.00;62.20;;;;;;4992013;28;20611;-56
2022/01/02 09:16:39;;;;;;;3.00;1.45;;;16.00;61.70;;;;;;5001344;28;20799;-52
2022/01/02 09:19:07;;;;;;;1.63;1.35;;;16.10;61.50;;;;;;5006583;28;20041;-56
2022/01/02 09:21:33;;;;;;;1.83;1.08;;;16.10;61.10;;;;;;5001778;28;20434;-57
2022/01/02 09:24:00;;;;;;;2.80;1.52;;;16.20;61.00;;;;;;5013551;28;20087;-55
2022/01/02 09:26:27;;;;;;;3.45;1.60;;;16.20;60.70;;;;;;4996093;28;20042;-54
2022/01/02 09:28:54;;;;;;;1.77;1.67;;;16.30;60.70;;;;;;5016531;28;20046;-57
2022/01/02 09:31:21;;;;;;;3.47;1.67;;;16.30;60.50;;;;;;4991097;28;20045;-56
2022/01/02 09:33:48;;;;;;;2.53;1.65;;;16.40;60.30;;;;;;5008827;28;20052;-56
2022/01/02 09:36:15;;;;;;;3.92;2.03;;;16.40;60.30;;;;;;5000246;28;20125;-56
2022/01/02 09:38:43;;;;;;;6.60;2.20;;;16.50;60.20;;;;;;5023521;28;20437;-54
2022/01/02 09:41:10;;;;;;;2.95;1.77;;;16.60;60.20;;;;;;4997956;28;20046;-55
2022/01/02 09:43:36;;;;;;;4.38;2.03;;;16.60;59.80;;;;;;5013899;28;20633;-54
2022/01/02 09:46:04;;;;;;;3.80;1.80;;;16.70;59.70;;;;;;4999703;28;20046;-56
2022/01/02 09:48:31;;;;;;;3.42;2.00;;;16.70;59.50;;;;;;5008943;28;20088;-56
2022/01/02 09:50:58;;;;;;;3.20;2.10;;;16.70;59.60;;;;;;4999445;28;20034;-55
2022/01/02 09:53:25;;;;;;;3.17;2.20;;;16.70;59.60;;;;;;5008118;28;20042;-54
2022/01/02 09:55:55;;;;;;;3.20;1.90;;;16.80;59.90;;;;;;5005043;28;20042;-56
2022/01/02 09:58:22;;;;;;;2.30;2.00;;;16.80;59.80;;;;;;5020709;28;20068;-55
2022/01/02 10:00:49;;;;;;;3.63;1.90;;;16.80;59.80;;;;;;5002391;28;20046;-54
2022/01/02 10:03:17;;;;;;;2.22;1.90;;;16.80;59.80;;;;;;4999595;28;20053;-53
2022/01/02 10:05:52;;;;;;;2.60;2.40;;;16.80;59.90;;;;;;5005824;28;20050;-51
2022/01/02 10:08:26;;;;;;;3.60;2.35;;;16.90;59.90;;;;;;5012606;28;20088;-52
2022/01/02 10:11:10;;;;;;;3.67;2.15;;;16.80;60.30;;;;;;4997467;28;20034;-55
2022/01/02 10:13:37;;;;;;;1.95;1.70;;;16.80;59.40;;;;;;4998502;28;20036;-55
2022/01/02 10:16:37;;;;;;;5.60;2.17;;;16.80;60.20;;;;;;5004983;28;20116;-56
2022/01/02 10:19:26;;;;;;;3.92;2.45;;;16.80;60.00;;;;;;5016453;28;20042;-55
2022/01/02 10:21:59;;;;;;;4.40;2.88;;;16.80;60.00;;;;;;5000740;28;20047;-54
2022/01/02 10:24:27;;;;;;;3.67;2.30;;;16.80;60.20;;;;;;5019826;28;20041;-56
2022/01/02 10:27:11;;;;;;;7.40;3.35;;;16.70;60.20;;;;;;5011929;28;20160;-54
2022/01/02 10:29:45;;;;;;;4.65;2.42;;;16.70;60.10;;;;;;5010314;28;20061;-55
2022/01/02 10:32:22;;;;;;;2.53;2.33;;;16.60;60.30;;;;;;5008130;28;20048;-54
2022/01/02 10:34:53;;;;;;;3.47;2.20;;;16.50;60.30;;;;;;5015714;28;20038;-55
2022/01/02 10:37:26;;;;;;;3.50;2.30;;;16.50;60.80;;;;;;5000988;28;20069;-53
2022/01/02 10:39:53;;;;;;;2.92;2.50;;;16.40;60.90;;;;;;5009386;28;20034;-52
2022/01/02 10:42:20;;;;;;;6.45;3.05;;;16.40;61.50;;;;;;5002823;28;20444;-54
2022/01/02 10:44:49;;;;;;;3.35;2.78;;;16.40;61.70;;;;;;5004145;28;20041;-54
2022/01/02 10:47:18;;;;;;;4.13;2.78;;;16.40;61.80;;;;;;5002644;28;20131;-53
2022/01/02 10:50:06;;;;;;;4.43;2.78;;;16.40;62.00;;;;;;5013500;28;20473;-52
2022/01/02 10:52:39;;;;;;;4.90;2.25;;;16.50;61.60;;;;;;5010340;28;20756;-52
2022/01/02 10:55:22;;;;;;;;;;;16.50;62.10;;;;;;5017407;28;20053;-54
2022/01/02 10:57:54;;;;;;;5.55;2.67;;;16.60;62.30;;;;;;5009148;28;20351;-52
2022/01/02 11:00:24;;;;;;;3.85;3.25;;;16.60;62.10;;;;;;5001875;28;20528;-53
2022/01/02 11:02:51;;;;;;;4.68;2.85;;;16.60;61.80;;;;;;5005104;28;20088;-54
2022/01/02 11:05:23;;;;;;;3.65;2.40;;;16.60;62.10;;;;;;5005043;28;20072;-53
2022/01/02 11:07:54;;;;;;;3.45;3.08;;;16.60;62.00;;;;;;5009669;28;20042;-53
2022/01/02 11:10:22;;;;;;;4.93;3.38;;;16.60;62.10;;;;;;5005427;28;20144;-55
2022/01/02 11:12:50;;;;;;;4.28;2.83;;;16.60;62.20;;;;;;5008752;28;20107;-50
2022/01/02 11:15:19;;;;;;;4.18;3.13;;;16.60;62.30;;;;;;5014316;28;20042;-56
2022/01/02 11:17:47;;;;;;;4.53;3.40;;;16.60;62.30;;;;;;5010959;28;20095;-50
2022/01/02 11:20:16;;;;;;;6.05;2.60;;;16.60;62.50;;;;;;5015835;28;20541;-55
2022/01/02 11:22:57;;;;;;;4.68;2.90;;;16.60;62.40;;;;;;5015260;28;20076;-53
2022/01/02 11:25:23;;;;;;;5.03;2.80;;;16.60;62.10;;;;;;5009148;28;20038;-50
2022/01/02 11:27:58;;;;;;;5.20;2.67;;;16.70;62.30;;;;;;5009986;28;20034;-51
2022/01/02 11:30:33;;;;;;;5.00;2.88;;;16.70;62.20;;;;;;5001777;28;20057;-52
2022/01/02 11:33:05;;;;;;;3.65;2.38;;;16.70;62.30;;;;;;5022804;28;20099;-53
2022/01/02 11:35:32;;;;;;;4.85;2.60;;;16.70;62.20;;;;;;5005183;28;20046;-54
2022/01/02 11:38:03;;;;;;;3.58;2.72;;;16.60;62.10;;;;;;5012795;28;20050;-51
2022/01/02 11:40:58;;;;;;;4.22;2.53;;;16.70;62.10;;;;;;5014572;28;20042;-53
2022/01/02 11:43:46;;;;;;;4.53;3.47;;;16.60;62.20;;;;;;5010557;28;20049;-50
2022/01/02 11:46:17;;;;;;;3.53;2.63;;;16.60;62.30;;;;;;4998200;28;20042;-52
2022/01/02 11:49:03;;;;;;;5.80;2.97;;;16.60;62.40;;;;;;5016342;28;20053;-55
2022/01/02 11:51:48;;;;;;;4.20;2.55;;;16.60;62.40;;;;;;5007336;28;20747;-50
2022/01/02 11:54:39;;;;;;;4.30;2.78;;;16.60;62.40;;;;;;5009254;28;20107;-53
2022/01/02 11:57:14;;;;;;;7.72;3.20;;;16.60;62.50;;;;;;5002269;28;20046;-51
2022/01/02 11:59:47;;;;;;;5.82;2.70;;;16.60;62.60;;;;;;5015617;28;20096;-51
2022/01/02 12:02:23;;;;;;;6.20;3.08;;;16.60;62.60;;;;;;5004439;28;20552;-54
2022/01/02 12:04:59;;;;;;;4.03;2.30;;;16.60;62.70;;;;;;4998215;28;20555;-53
2022/01/02 12:07:35;;;;;;;6.03;2.90;;;16.60;62.70;;;;;;4999445;28;20125;-55
2022/01/02 12:10:17;;;;;;;3.53;2.97;;;16.60;62.60;;;;;;5010046;28;20124;-54
2022/01/02 12:12:59;;;;;;;6.60;2.90;;;16.60;62.90;;;;;;5002465;28;20042;-54
2022/01/02 12:15:34;;;;;;;3.42;2.75;;;16.50;62.80;;;;;;5000746;28;20192;-51
2022/01/02 12:18:11;;;;;;;4.18;2.80;;;16.50;62.90;;;;;;5010872;28;20081;-53
2022/01/02 12:20:50;;;;;;;6.10;2.33;;;16.60;63.00;;;;;;4998064;28;20493;-53
2022/01/02 12:23:41;;;;;;;4.20;2.40;;;16.50;63.10;;;;;;5012240;28;20029;-52
2022/01/02 12:26:16;;;;;;;3.70;2.50;;;16.60;63.00;;;;;;5000335;28;20103;-53
2022/01/02 12:29:04;;;;;;;5.15;2.72;;;16.50;63.00;;;;;;5008976;28;20107;-54
2022/01/02 12:31:35;;;;;;;5.75;2.88;;;16.50;62.80;;;;;;4996427;28;20480;-54
2022/01/02 12:34:11;;;;;;;4.93;2.30;;;16.50;63.00;;;;;;5005048;28;20069;-49
2022/01/02 12:36:41;;;;;;;4.85;2.63;;;16.50;63.10;;;;;;4993059;28;20073;-54
2022/01/02 12:39:13;;;;;;;4.10;2.55;;;16.50;63.10;;;;;;5005826;28;20061;-53
2022/01/02 12:41:41;;;;;;;;;;;16.50;63.30;;;;;;5003276;28;20672;-54
2022/01/02 12:44:22;;;;;;;4.03;2.22;;;16.50;63.40;;;;;;5021718;28;19948;-53
2022/01/02 12:46:51;;;;;;;2.05;1.77;;;16.50;63.10;;;;;;5002668;28;20522;-53
2022/01/02 12:49:27;;;;;;;8.13;2.40;;;16.50;63.20;;;;;;5016716;28;20077;-52
2022/01/02 12:51:59;;;;;;;4.63;2.47;;;16.50;63.30;;;;;;4999456;28;20037;-52
2022/01/02 12:54:29;;;;;;;6.32;2.90;;;16.50;63.40;;;;;;5026617;22;20045;-48
2022/01/02 12:57:02;;;;;;;3.58;2.67;;;16.50;63.40;;;;;;4999786;28;20037;-48
2022/01/02 12:59:36;;;;;;;5.13;3.28;;;16.50;63.30;;;;;;5020028;28;20045;-47
2022/01/02 13:02:07;;;;;;;3.60;2.50;;;16.50;63.50;;;;;;5000336;28;20046;-50
2022/01/02 13:04:42;;;;;;;4.07;2.60;;;16.50;63.50;;;;;;5007827;28;20064;-47
2022/01/02 13:07:14;;;;;;;5.43;1.90;;;16.50;63.70;;;;;;5000150;28;20092;-46
2022/01/02 13:09:54;;;;;;;;;;;16.60;63.70;;;;;;5019675;28;20041;-46
2022/01/02 13:12:32;;;;;;;4.82;2.70;;;16.60;63.80;;;;;;5000132;28;20118;-47
2022/01/02 13:15:03;;;;;;;4.60;2.67;;;16.60;63.40;;;;;;5010153;28;20112;-51